createdAt,value
2018-06-30T00:00:39.813Z,48.30
2018-06-30T00:03:08.581Z,48.20
2018-06-30T00:05:37.196Z,48.40
2018-06-30T00:08:05.844Z,48.60
2018-06-30T00:10:34.472Z,48.60
2018-06-30T00:13:04.334Z,48.60
2018-06-30T00:15:32.930Z,48.60
2018-06-30T00:18:01.551Z,48.80
2018-06-30T00:20:30.217Z,48.70
2018-06-30T00:22:58.846Z,48.50
2018-06-30T00:25:27.446Z,48.80
2018-06-30T00:27:56.668Z,49.00
2018-06-30T00:32:54.939Z,48.80
2018-06-30T00:37:52.426Z,48.90
2018-06-30T00:47:45.691Z,48.70
2018-06-30T00:50:14.271Z,48.60
2018-06-30T00:52:42.828Z,48.60
2018-06-30T00:55:11.499Z,48.30
2018-06-30T00:57:40.343Z,48.20
2018-06-30T01:00:08.955Z,48.30
2018-06-30T01:07:34.018Z,48.20
2018-06-30T01:10:02.588Z,47.90
2018-06-30T01:12:31.075Z,47.80
2018-06-30T01:14:59.598Z,47.50
2018-06-30T01:17:28.107Z,47.60
2018-06-30T01:19:56.696Z,47.70
2018-06-30T01:24:54.384Z,47.50
2018-06-30T01:27:22.883Z,47.70
2018-06-30T01:29:51.554Z,47.80
2018-06-30T01:32:20.088Z,47.70
2018-06-30T01:34:48.639Z,47.60
2018-06-30T01:37:17.323Z,47.70
2018-06-30T01:39:46.722Z,47.60
2018-06-30T01:42:15.303Z,47.40
2018-06-30T01:44:43.855Z,47.40
2018-06-30T01:49:40.659Z,47.40
2018-06-30T01:52:09.210Z,47.30
2018-06-30T01:54:38.664Z,47.50
2018-06-30T01:57:07.387Z,47.50
2018-06-30T01:59:35.870Z,47.40
2018-06-30T02:02:04.583Z,47.30
2018-06-30T02:04:33.274Z,48.10
2018-06-30T02:07:01.835Z,47.50
2018-06-30T02:09:30.344Z,47.30
2018-06-30T02:11:58.915Z,47.30
2018-06-30T02:14:27.675Z,47.30
2018-06-30T02:16:56.185Z,47.30
2018-06-30T02:19:25.318Z,47.30
2018-06-30T02:21:53.927Z,47.40
2018-06-30T02:26:50.805Z,47.50
2018-06-30T02:29:19.308Z,47.60
2018-06-30T02:31:47.808Z,47.70
2018-06-30T02:34:16.544Z,48.00
2018-06-30T02:39:13.564Z,48.40
2018-06-30T02:41:42.019Z,49.00
2018-06-30T02:44:10.601Z,49.10
2018-06-30T02:46:39.073Z,49.00
2018-06-30T02:49:07.659Z,49.30
2018-06-30T02:51:36.252Z,50.00
2018-06-30T02:54:04.830Z,49.50
2018-06-30T02:56:33.416Z,49.70
2018-06-30T02:59:02.261Z,49.80
2018-06-30T03:01:30.783Z,49.90
2018-06-30T03:03:59.301Z,50.00
2018-06-30T03:06:27.849Z,49.90
2018-06-30T03:08:56.491Z,49.80
2018-06-30T03:13:53.240Z,50.20
2018-06-30T03:16:21.749Z,50.40
2018-06-30T03:18:50.332Z,50.70
2018-06-30T03:21:18.864Z,51.40
2018-06-30T03:23:47.419Z,50.90
2018-06-30T03:26:15.991Z,50.90
2018-06-30T03:28:44.720Z,50.80
2018-06-30T03:31:13.246Z,51.00
2018-06-30T03:33:41.921Z,51.10
2018-06-30T03:36:10.459Z,51.20
2018-06-30T03:38:39.067Z,51.30
2018-06-30T03:41:08.786Z,51.30
2018-06-30T03:46:05.782Z,51.50
2018-06-30T03:48:34.404Z,51.50
2018-06-30T03:51:02.929Z,51.50
2018-06-30T03:53:31.542Z,51.60
2018-06-30T03:56:01.617Z,51.60
2018-06-30T03:58:30.154Z,51.60
2018-06-30T04:00:58.799Z,51.60
2018-06-30T04:03:27.363Z,51.60
2018-06-30T04:08:24.163Z,51.60
2018-06-30T04:10:52.797Z,51.60
2018-06-30T04:15:49.656Z,51.80
2018-06-30T04:20:46.551Z,51.90
2018-06-30T04:23:15.036Z,52.00
2018-06-30T04:25:44.649Z,52.20
2018-06-30T04:28:13.253Z,52.30
2018-06-30T04:30:41.767Z,52.30
2018-06-30T04:35:38.611Z,52.20
2018-06-30T04:38:07.247Z,52.20
2018-06-30T04:40:35.829Z,52.20
2018-06-30T04:43:04.472Z,51.90
2018-06-30T04:45:32.948Z,52.30
2018-06-30T04:50:29.755Z,52.60
2018-06-30T04:52:58.246Z,52.30
2018-06-30T04:55:26.812Z,52.00
2018-06-30T04:57:55.374Z,51.80
2018-06-30T05:00:23.940Z,51.50
2018-06-30T05:05:20.803Z,51.20
2018-06-30T05:10:17.515Z,51.10
2018-06-30T05:12:46.174Z,50.90
2018-06-30T05:17:42.885Z,50.60
2018-06-30T05:20:11.396Z,50.50
2018-06-30T05:22:39.993Z,50.60
2018-06-30T05:25:08.851Z,50.60
2018-06-30T05:30:05.939Z,49.00
2018-06-30T05:32:34.492Z,44.30
2018-06-30T05:37:31.268Z,36.00
2018-06-30T05:40:00.355Z,32.30
2018-06-30T05:42:29.292Z,30.00
2018-06-30T05:44:57.813Z,28.50
2018-06-30T05:49:54.731Z,26.20
2018-06-30T05:52:23.299Z,24.90
2018-06-30T05:54:51.787Z,26.30
2018-06-30T05:57:20.358Z,23.40
2018-06-30T05:59:48.846Z,22.90
2018-06-30T06:02:17.415Z,21.90
2018-06-30T06:04:45.949Z,21.20
2018-06-30T06:07:14.507Z,21.10
2018-06-30T06:09:43.129Z,20.60
2018-06-30T06:12:11.652Z,20.00
2018-06-30T06:15:00.278Z,19.90
2018-06-30T06:17:29.091Z,19.50
2018-06-30T06:19:58.874Z,19.10
2018-06-30T06:24:55.693Z,18.90
2018-06-30T06:27:24.251Z,18.30
2018-06-30T06:29:52.795Z,18.60
2018-06-30T06:32:21.311Z,18.10
2018-06-30T06:34:49.847Z,17.70
2018-06-30T06:37:18.390Z,17.80
2018-06-30T06:39:46.957Z,17.90
2018-06-30T06:42:15.497Z,18.10
2018-06-30T06:47:13.063Z,18.20
2018-06-30T06:52:10.143Z,18.50
2018-06-30T06:54:38.898Z,18.70
2018-06-30T06:57:12.087Z,18.90
2018-06-30T06:59:40.639Z,19.90
2018-06-30T07:02:15.217Z,19.80
2018-06-30T07:04:43.736Z,20.20
2018-06-30T07:07:12.375Z,20.80
2018-06-30T07:09:41.164Z,22.20
2018-06-30T07:12:09.696Z,23.30
2018-06-30T07:14:39.640Z,24.30
2018-06-30T07:17:08.303Z,25.60
2018-06-30T07:19:36.884Z,27.20
2018-06-30T07:24:58.867Z,29.00
2018-06-30T07:27:29.807Z,31.10
2018-06-30T07:29:58.519Z,32.60
2018-06-30T07:32:29.217Z,33.10
2018-06-30T07:35:00.881Z,34.00
2018-06-30T07:37:29.565Z,34.90
2018-06-30T07:39:58.163Z,35.10
2018-06-30T07:44:55.839Z,36.70
2018-06-30T07:49:52.780Z,36.40
2018-06-30T07:52:21.478Z,37.80
2018-06-30T07:57:18.271Z,38.20
2018-06-30T07:59:46.871Z,38.30
2018-06-30T08:02:16.382Z,38.10
2018-06-30T08:04:44.971Z,37.20
2018-06-30T08:07:13.663Z,38.40
2018-06-30T08:09:42.959Z,38.80
2018-06-30T08:12:11.464Z,38.60
2018-06-30T08:14:40.038Z,38.10
2018-06-30T08:17:08.934Z,38.80
2018-06-30T08:24:33.969Z,38.60
2018-06-30T08:27:02.580Z,39.00
2018-06-30T08:31:59.401Z,39.20
2018-06-30T08:34:30.776Z,38.80
2018-06-30T08:36:59.609Z,39.00
2018-06-30T08:39:28.292Z,39.20
2018-06-30T08:41:56.980Z,39.30
2018-06-30T08:44:56.524Z,39.20
2018-06-30T08:47:45.188Z,39.40
2018-06-30T08:52:56.409Z,40.00
2018-06-30T08:55:32.082Z,39.50
2018-06-30T08:58:00.565Z,39.10
2018-06-30T09:00:30.067Z,38.80
2018-06-30T09:02:58.696Z,38.60
2018-06-30T09:05:27.290Z,38.80
2018-06-30T09:07:55.924Z,38.40
2018-06-30T09:10:37.309Z,38.50
2018-06-30T09:13:06.007Z,38.40
2018-06-30T09:15:36.923Z,37.90
2018-06-30T09:18:09.062Z,38.20
2018-06-30T09:20:37.662Z,38.30
2018-06-30T09:23:07.151Z,38.20
2018-06-30T09:25:36.732Z,38.20
2018-06-30T09:30:33.689Z,38.00
2018-06-30T09:33:02.188Z,38.00
2018-06-30T09:37:59.717Z,37.70
2018-06-30T09:43:23.176Z,37.20
2018-06-30T09:45:51.728Z,37.60
2018-06-30T09:48:20.461Z,37.60
2018-06-30T09:50:49.052Z,37.70
2018-06-30T09:53:17.639Z,37.90
2018-06-30T09:55:46.296Z,38.10
2018-06-30T09:58:14.892Z,38.90
2018-06-30T10:00:48.700Z,38.30
2018-06-30T10:03:17.161Z,38.30
2018-06-30T10:05:46.081Z,38.00
2018-06-30T10:08:14.637Z,37.40
2018-06-30T10:10:43.175Z,37.00
2018-06-30T10:15:39.952Z,36.80
2018-06-30T10:18:08.744Z,36.00
2018-06-30T10:20:37.366Z,35.90
2018-06-30T10:23:05.980Z,35.80
2018-06-30T10:28:09.424Z,35.50
2018-06-30T10:30:38.846Z,35.40
2018-06-30T10:33:07.434Z,35.20
2018-06-30T10:35:36.114Z,35.20
2018-06-30T10:38:05.010Z,35.40
2018-06-30T10:40:33.703Z,35.50
2018-06-30T10:43:02.404Z,35.50
2018-06-30T10:45:31.690Z,34.90
2018-06-30T10:48:00.321Z,35.00
2018-06-30T10:50:28.942Z,35.50
2018-06-30T10:52:57.978Z,35.00
2018-06-30T10:55:26.688Z,35.60
2018-06-30T10:57:55.224Z,35.20
2018-06-30T11:00:24.146Z,34.80
2018-06-30T11:05:23.257Z,34.30
2018-06-30T11:07:51.957Z,34.40
2018-06-30T11:10:20.832Z,33.50
2018-06-30T11:13:16.657Z,33.60
2018-06-30T11:31:15.073Z,34.00
2018-06-30T11:33:44.093Z,34.70
